Terminal Aerodrome Forecast
Issued by NWS Buffalo, NY

Home | Current Version | Previous Version | Text Only | Print | Product List | Glossary On
Versions: 1 2 3 4 5 6 7 8 9 10 11 12 13 14 15 16 17 18 19 20 21
000
FTUS41 KBUF 231136
TAFART
TAF
KART 231136Z 2312/2412 24004KT P6SM SKC
     FM231500 24012KT P6SM FEW250
     FM231800 24014G22KT P6SM FEW090 FEW200
     FM232100 24013KT P6SM BKN090
     FM240300 21008KT P6SM SCT090 WS020/24040KT=

USA.gov is the U.S. government's official web portal to all federal, state and local government web resources and services.